Time;durP1;ratioP1;P1;durP2;ratioP2;P2;SDS_P1;SDS_P2;PMS_P1;PMS_P2;Temp;Humidity;BMP_temperature;BMP_pressure;BME280_temperature;BME280_humidity;BME280_pressure;Samples;Min_cycle;Max_cycle;Signal;HPM_P1;HPM_P2
2024/03/17 00:01:02;;;;;;;0.88;0.88;;;;;;;3.85;100.00;99280.72;6144591;23;20381;-90
2024/03/17 00:03:35;;;;;;;0.85;0.85;;;;;;;3.81;100.00;99273.44;6161495;23;20163;-92
2024/03/17 00:06:02;;;;;;;0.90;0.90;;;;;;;3.74;100.00;99268.59;6137070;23;20032;-91
2024/03/17 00:08:27;;;;;;;0.87;0.87;;;;;;;3.78;100.00;99267.94;6162584;23;20523;-92
2024/03/17 00:10:56;;;;;;;0.82;0.82;;;;;;;3.50;100.00;99265.28;6162280;23;20020;-91
2024/03/17 00:13:24;;;;;;;1.00;1.00;;;;;;;3.33;100.00;99261.53;6136702;23;20025;-91
2024/03/17 00:15:51;;;;;;;0.90;0.90;;;;;;;3.43;100.00;99270.03;6159485;23;20024;-90
2024/03/17 00:18:17;;;;;;;0.90;0.90;;;;;;;3.37;100.00;99269.66;6158766;23;20333;-91
2024/03/17 00:20:43;;;;;;;0.90;0.90;;;;;;;3.41;100.00;99258.50;6160567;23;20013;-92
2024/03/17 00:23:11;;;;;;;0.90;0.90;;;;;;;3.51;100.00;99274.09;6136319;23;20065;-91
2024/03/17 00:25:40;;;;;;;0.93;0.93;;;;;;;3.77;100.00;99274.03;6135106;23;20059;-92
2024/03/17 00:28:06;;;;;;;0.80;0.80;;;;;;;3.85;100.00;99279.81;6160534;23;20012;-90
2024/03/17 00:30:33;;;;;;;0.90;0.90;;;;;;;3.89;100.00;99276.56;6160219;23;20100;-91
2024/03/17 00:33:00;;;;;;;0.90;0.90;;;;;;;3.99;100.00;99273.69;6161345;23;20025;-91
2024/03/17 00:35:31;;;;;;;1.00;1.00;;;;;;;3.99;100.00;99278.06;6158286;23;20032;-91
2024/03/17 00:38:00;;;;;;;0.90;0.90;;;;;;;3.91;100.00;99271.38;6159956;23;20005;-90
2024/03/17 00:40:25;;;;;;;;;;;;;;;3.85;100.00;99272.81;6129867;23;20425;-90
2024/03/17 00:42:51;;;;;;;1.00;1.00;;;;;;;3.86;100.00;99273.72;6154033;23;19992;-91
2024/03/17 00:45:16;;;;;;;0.90;0.90;;;;;;;3.75;100.00;99265.13;6153630;23;20021;-90
2024/03/17 00:47:42;;;;;;;0.90;0.90;;;;;;;3.79;100.00;99258.31;6154088;23;20013;-91
2024/03/17 00:50:08;;;;;;;0.93;0.93;;;;;;;3.59;100.00;99263.25;6150383;23;20017;-90
2024/03/17 00:52:34;;;;;;;1.00;1.00;;;;;;;3.54;100.00;99267.28;6148291;23;20024;-90
2024/03/17 00:55:00;;;;;;;0.95;0.95;;;;;;;3.63;100.00;99255.50;6125739;23;20009;-90
2024/03/17 00:57:26;;;;;;;0.90;0.90;;;;;;;3.65;100.00;99262.72;6177908;23;20374;-90
2024/03/17 00:59:52;;;;;;;0.90;0.90;;;;;;;3.63;100.00;99256.41;6128589;23;20013;-90
2024/03/17 01:02:18;;;;;;;1.10;1.10;;;;;;;3.71;100.00;99256.91;6154505;23;20047;-89
2024/03/17 01:04:44;;;;;;;1.00;1.00;;;;;;;3.50;100.00;99248.53;6154855;23;20013;-91
2024/03/17 01:07:10;;;;;;;0.93;0.93;;;;;;;3.48;100.00;99251.06;6154305;23;20018;-91
2024/03/17 01:09:36;;;;;;;1.00;1.00;;;;;;;3.57;100.00;99251.66;6153176;23;20066;-92
2024/03/17 01:12:02;;;;;;;1.00;1.00;;;;;;;3.52;100.00;99242.53;6154447;23;20028;-90
2024/03/17 01:14:28;;;;;;;0.90;0.90;;;;;;;3.44;100.00;99246.38;6161940;23;20009;-90
2024/03/17 01:16:55;;;;;;;1.00;1.00;;;;;;;3.31;100.00;99254.34;6155907;23;20430;-90
2024/03/17 01:19:20;;;;;;;0.90;0.90;;;;;;;3.37;100.00;99244.19;6154520;23;20677;-90
2024/03/17 01:21:45;;;;;;;0.98;0.98;;;;;;;3.39;100.00;99239.91;6154791;23;20010;-91
2024/03/17 01:24:11;;;;;;;0.90;0.90;;;;;;;3.21;100.00;99239.63;6157014;23;20048;-91
2024/03/17 01:26:38;;;;;;;0.90;0.90;;;;;;;3.23;100.00;99242.38;6173551;23;20005;-90
2024/03/17 01:29:03;;;;;;;1.00;1.00;;;;;;;3.28;100.00;99236.56;6151841;23;20078;-90
2024/03/17 01:31:29;;;;;;;0.90;0.90;;;;;;;3.24;100.00;99238.91;6151316;23;20005;-90
2024/03/17 01:33:54;;;;;;;0.90;0.90;;;;;;;3.30;100.00;99240.22;6177287;23;20002;-89
2024/03/17 01:36:20;;;;;;;1.00;1.00;;;;;;;3.15;100.00;99233.94;6176437;23;20045;-90
2024/03/17 01:38:45;;;;;;;1.00;1.00;;;;;;;3.10;100.00;99230.09;6176655;23;20017;-90
2024/03/17 01:41:11;;;;;;;0.90;0.90;;;;;;;3.08;100.00;99229.09;6171923;23;20032;-90
2024/03/17 01:43:36;;;;;;;0.93;0.93;;;;;;;3.22;100.00;99222.09;6155854;23;20354;-90
2024/03/17 01:46:04;;;;;;;1.00;1.00;;;;;;;3.11;100.00;99220.44;6155364;23;20715;-90
2024/03/17 01:48:29;;;;;;;1.00;1.00;;;;;;;2.95;100.00;99222.06;6154731;23;20013;-91
2024/03/17 01:50:56;;;;;;;1.00;1.00;;;;;;;3.00;100.00;99219.75;6155275;23;20092;-90
2024/03/17 01:53:25;;;;;;;1.10;1.10;;;;;;;2.99;100.00;99220.56;6154663;23;20349;-89
2024/03/17 01:55:53;;;;;;;1.10;1.10;;;;;;;3.00;100.00;99211.84;6154307;23;20020;-91
2024/03/17 01:58:20;;;;;;;0.95;0.95;;;;;;;3.05;100.00;99218.31;6129849;23;20009;-91
2024/03/17 02:00:45;;;;;;;0.90;0.90;;;;;;;3.19;100.00;99216.59;6154958;23;20731;-92
2024/03/17 02:03:12;;;;;;;0.90;0.90;;;;;;;3.15;100.00;99212.84;6154835;23;20029;-91
2024/03/17 02:05:40;;;;;;;1.00;1.00;;;;;;;3.16;100.00;99209.38;6155934;23;20017;-91
2024/03/17 02:08:07;;;;;;;0.90;0.90;;;;;;;3.17;100.00;99200.69;6157860;23;20006;-91
2024/03/17 02:10:33;;;;;;;0.80;0.80;;;;;;;3.25;100.00;99204.72;6129026;23;20026;-90
2024/03/17 02:13:00;;;;;;;0.98;0.98;;;;;;;3.13;100.00;99200.38;6155195;23;20021;-90
2024/03/17 02:15:25;;;;;;;0.90;0.90;;;;;;;3.22;100.00;99198.34;6153904;23;20006;-90
2024/03/17 02:17:51;;;;;;;1.00;1.00;;;;;;;3.27;100.00;99197.84;6153134;23;20009;-91
2024/03/17 02:20:17;;;;;;;1.00;1.00;;;;;;;3.23;100.00;99197.53;6153662;23;20092;-91
2024/03/17 02:22:43;;;;;;;1.00;1.00;;;;;;;3.27;100.00;99197.84;6131270;23;20033;-91
2024/03/17 02:25:09;;;;;;;0.90;0.90;;;;;;;3.15;100.00;99181.19;6155894;23;20072;-92
2024/03/17 02:27:35;;;;;;;0.95;0.95;;;;;;;3.17;100.00;99190.16;6155609;23;20076;-91
2024/03/17 02:30:01;;;;;;;1.00;1.00;;;;;;;3.24;100.00;99188.81;6155835;23;20042;-91
2024/03/17 02:32:27;;;;;;;1.10;1.10;;;;;;;3.11;100.00;99181.81;6132230;23;20401;-90
2024/03/17 02:34:53;;;;;;;1.00;1.00;;;;;;;3.03;100.00;99189.25;6131703;23;20009;-91
2024/03/17 02:37:19;;;;;;;1.00;1.00;;;;;;;3.10;100.00;99185.28;6131929;23;20040;-92
2024/03/17 02:39:44;;;;;;;0.95;0.95;;;;;;;2.90;100.00;99189.22;6132246;23;20314;-91
2024/03/17 02:42:10;;;;;;;0.90;0.90;;;;;;;2.87;100.00;99189.03;6156386;23;20016;-91
2024/03/17 02:44:38;;;;;;;1.00;1.00;;;;;;;2.95;100.00;99179.00;6156951;23;20628;-91
2024/03/17 02:47:05;;;;;;;0.90;0.90;;;;;;;2.70;100.00;99177.38;6156235;23;20061;-91
2024/03/17 02:49:36;;;;;;;1.00;1.00;;;;;;;2.72;100.00;99188.00;6156522;23;20036;-90
2024/03/17 02:52:06;;;;;;;1.00;1.00;;;;;;;2.54;100.00;99187.69;6133905;23;20365;-90
2024/03/17 02:54:32;;;;;;;1.00;1.00;;;;;;;2.69;100.00;99186.09;6160544;23;20017;-90
2024/03/17 02:56:58;;;;;;;1.00;1.00;;;;;;;2.58;100.00;99173.91;6162081;23;20010;-90
2024/03/17 02:59:25;;;;;;;0.90;0.90;;;;;;;2.57;100.00;99172.09;6138171;23;20390;-91
2024/03/17 03:01:52;;;;;;;1.00;1.00;;;;;;;2.64;100.00;99174.34;6141379;23;20008;-91
2024/03/17 03:04:18;;;;;;;1.00;1.00;;;;;;;2.62;100.00;99175.03;6168053;23;20013;-89
2024/03/17 03:06:43;;;;;;;0.90;0.90;;;;;;;2.55;100.00;99174.63;6142910;23;20020;-89
2024/03/17 03:09:13;;;;;;;1.00;1.00;;;;;;;2.69;100.00;99164.09;6174522;23;20028;-88
2024/03/17 03:11:40;;;;;;;0.90;0.90;;;;;;;2.72;100.00;99172.19;6171844;23;20017;-90
2024/03/17 03:14:06;;;;;;;1.00;1.00;;;;;;;2.67;100.00;99173.63;6175958;23;20037;-90
2024/03/17 03:16:33;;;;;;;0.93;0.93;;;;;;;2.56;100.00;99165.91;6177412;23;20029;-90
2024/03/17 03:18:59;;;;;;;1.00;1.00;;;;;;;2.56;100.00;99178.16;6176258;23;20010;-90
2024/03/17 03:21:24;;;;;;;1.00;1.00;;;;;;;2.64;100.00;99174.34;6175334;23;20009;-91
2024/03/17 03:23:51;;;;;;;1.00;1.00;;;;;;;2.63;100.00;99175.13;6166336;23;20068;-92
2024/03/17 03:26:18;;;;;;;1.10;1.10;;;;;;;2.52;100.00;99177.03;6163870;23;20019;-91
2024/03/17 03:28:45;;;;;;;1.00;1.00;;;;;;;2.52;100.00;99174.41;6160693;23;20036;-91
2024/03/17 03:31:13;;;;;;;1.10;1.10;;;;;;;2.68;100.00;99168.44;6158944;23;20088;-91
2024/03/17 03:33:40;;;;;;;0.90;0.90;;;;;;;2.64;100.00;99179.59;6158953;23;20013;-92
2024/03/17 03:36:13;;;;;;;1.00;1.00;;;;;;;2.72;100.00;99172.19;6157777;23;20032;-91
2024/03/17 03:38:42;;;;;;;1.00;1.00;;;;;;;2.68;100.00;99163.16;6156219;23;20013;-91
2024/03/17 03:41:16;;;;;;;1.00;1.00;;;;;;;2.51;100.00;99158.50;6157668;23;20024;-90
2024/03/17 03:43:43;;;;;;;0.90;0.90;;;;;;;2.39;100.00;99163.84;6157147;23;20013;-92
2024/03/17 03:46:08;;;;;;;1.10;1.10;;;;;;;2.33;100.00;99160.81;6157208;23;20001;-91
2024/03/17 03:48:34;;;;;;;1.00;1.00;;;;;;;2.22;100.00;99161.81;6157961;23;20029;-91
2024/03/17 03:51:07;;;;;;;0.90;0.90;;;;;;;2.18;100.00;99158.03;6157002;23;20302;-91
2024/03/17 03:53:34;;;;;;;1.00;1.00;;;;;;;2.19;100.00;99164.22;6131959;23;20181;-91
2024/03/17 03:56:05;;;;;;;0.90;0.90;;;;;;;2.18;100.00;99168.56;6155364;23;20029;-90
2024/03/17 03:58:36;;;;;;;1.00;1.00;;;;;;;2.25;100.00;99170.84;6156645;23;20016;-92
2024/03/17 04:01:06;;;;;;;1.00;1.00;;;;;;;2.43;100.00;99167.59;6172246;23;20041;-91
2024/03/17 04:03:33;;;;;;;1.00;1.00;;;;;;;2.33;100.00;99158.16;6170133;23;20013;-90
2024/03/17 04:06:06;;;;;;;1.10;1.10;;;;;;;2.24;100.00;99161.09;6151175;23;20076;-89
2024/03/17 04:08:36;;;;;;;1.00;1.00;;;;;;;2.28;100.00;99156.94;6174643;23;20041;-91
2024/03/17 04:11:02;;;;;;;1.00;1.00;;;;;;;2.02;100.00;99163.06;6151376;23;20014;-90
2024/03/17 04:13:33;;;;;;;1.00;1.00;;;;;;;2.11;100.00;99161.06;6176359;23;20082;-90
2024/03/17 04:15:59;;;;;;;0.90;0.90;;;;;;;1.99;100.00;99169.03;6152219;23;20006;-90
2024/03/17 04:18:31;;;;;;;1.00;1.00;;;;;;;1.95;100.00;99160.81;6176604;23;20029;-89
2024/03/17 04:21:01;;;;;;;1.00;1.00;;;;;;;2.22;100.00;99167.97;6178639;23;20020;-89
2024/03/17 04:23:26;;;;;;;1.00;1.00;;;;;;;2.22;100.00;99165.34;6177730;23;20033;-90
2024/03/17 04:25:53;;;;;;;0.90;0.90;;;;;;;2.19;100.00;99166.84;6176952;23;19993;-89
2024/03/17 04:28:18;;;;;;;1.00;1.00;;;;;;;2.19;100.00;99164.22;6177257;23;20076;-90
2024/03/17 04:30:45;;;;;;;1.00;1.00;;;;;;;2.12;100.00;99159.34;6176759;23;20017;-90
2024/03/17 04:33:11;;;;;;;1.00;1.00;;;;;;;2.28;100.00;99171.03;6174668;23;20025;-89
2024/03/17 04:35:38;;;;;;;0.90;0.90;;;;;;;2.39;100.00;99160.31;6176035;23;20062;-90
2024/03/17 04:38:04;;;;;;;1.10;1.10;;;;;;;2.43;100.00;99162.34;6175951;23;20005;-89
2024/03/17 04:40:30;;;;;;;1.10;1.10;;;;;;;2.41;100.00;99164.88;6151697;23;20021;-89
2024/03/17 04:42:56;;;;;;;0.90;0.90;;;;;;;2.36;100.00;99165.38;6150405;23;20021;-89
2024/03/17 04:45:21;;;;;;;1.00;1.00;;;;;;;2.27;100.00;99166.56;6175683;23;20032;-90
2024/03/17 04:47:47;;;;;;;1.00;1.00;;;;;;;2.12;100.00;99165.53;6150763;23;20028;-89
2024/03/17 04:50:12;;;;;;;1.00;1.00;;;;;;;2.09;100.00;99167.94;6175655;23;20025;-90
2024/03/17 04:52:40;;;;;;;1.00;1.00;;;;;;;2.18;100.00;99172.94;6175560;23;20057;-91
2024/03/17 04:55:05;;;;;;;1.00;1.00;;;;;;;2.13;100.00;99174.34;6175983;23;20020;-91
2024/03/17 04:57:31;;;;;;;1.00;1.00;;;;;;;2.25;100.00;99178.72;6147756;23;20009;-90
2024/03/17 04:59:56;;;;;;;1.00;1.00;;;;;;;2.13;100.00;99172.59;6160376;23;20012;-89
2024/03/17 05:02:22;;;;;;;1.00;1.00;;;;;;;1.99;100.00;99173.38;6154380;23;20013;-90
2024/03/17 05:04:49;;;;;;;1.00;1.00;;;;;;;1.92;100.00;99171.13;6155664;23;20017;-90
2024/03/17 05:07:14;;;;;;;1.00;1.00;;;;;;;1.86;100.00;99181.22;6155629;23;20009;-88
2024/03/17 05:09:40;;;;;;;1.00;1.00;;;;;;;1.80;100.00;99179.97;6154508;23;20002;-90
2024/03/17 05:12:05;;;;;;;0.90;0.90;;;;;;;1.78;100.00;99176.34;6154253;23;20052;-91
2024/03/17 05:14:31;;;;;;;1.00;1.00;;;;;;;1.78;100.00;99184.22;6129674;23;20006;-91
2024/03/17 05:16:56;;;;;;;0.90;0.90;;;;;;;1.65;100.00;99181.53;6130076;23;20014;-92
2024/03/17 05:19:23;;;;;;;1.00;1.00;;;;;;;1.69;100.00;99177.41;6155702;23;20021;-91
2024/03/17 05:21:48;;;;;;;1.00;1.00;;;;;;;1.38;100.00;99177.84;6155575;23;20016;-91
2024/03/17 05:24:15;;;;;;;0.98;0.98;;;;;;;1.44;100.00;99174.75;6130405;23;20089;-91
2024/03/17 05:26:42;;;;;;;1.00;1.00;;;;;;;1.28;100.00;99180.59;6135104;23;20341;-92
2024/03/17 05:29:07;;;;;;;1.00;1.00;;;;;;;1.33;100.00;99167.78;6162952;23;20009;-91
2024/03/17 05:31:33;;;;;;;1.00;1.00;;;;;;;1.19;100.00;99172.97;6154573;23;20040;-91
2024/03/17 05:33:59;;;;;;;1.00;1.00;;;;;;;1.01;100.00;99174.28;6160058;23;20104;-90
2024/03/17 05:36:24;;;;;;;1.10;1.10;;;;;;;0.91;100.00;99170.06;6165253;23;20018;-91
2024/03/17 05:38:51;;;;;;;1.00;1.00;;;;;;;0.73;100.00;99169.59;6156581;23;20546;-92
2024/03/17 05:41:16;;;;;;;1.00;1.00;;;;;;;1.11;100.00;99167.97;6155848;23;20063;-91
2024/03/17 05:43:42;;;;;;;1.10;1.10;;;;;;;1.13;100.00;99180.41;6130166;23;20366;-91
2024/03/17 05:46:12;;;;;;;1.00;1.00;;;;;;;1.00;100.00;99175.06;6130011;23;20076;-91
2024/03/17 05:48:41;;;;;;;1.08;1.08;;;;;;;1.25;100.00;99181.31;6155401;23;20065;-91
2024/03/17 05:51:16;;;;;;;1.10;1.10;;;;;;;1.10;100.00;99179.25;6155149;23;20013;-90
2024/03/17 05:53:43;;;;;;;1.00;1.00;;;;;;;0.87;100.00;99180.22;6154392;23;20024;-90
2024/03/17 05:56:11;;;;;;;1.00;1.00;;;;;;;0.97;100.00;99182.72;6155871;23;20088;-91
2024/03/17 05:58:37;;;;;;;1.10;1.10;;;;;;;1.07;100.00;99179.06;6156751;23;20060;-91
2024/03/17 06:01:04;;;;;;;1.10;1.10;;;;;;;1.05;100.00;99173.66;6156074;23;20018;-91
2024/03/17 06:03:30;;;;;;;1.10;1.10;;;;;;;1.16;100.00;99180.66;6131512;23;20036;-91
2024/03/17 06:05:58;;;;;;;1.02;1.02;;;;;;;1.26;100.00;99176.97;6134419;23;20013;-91
2024/03/17 06:08:26;;;;;;;1.10;1.10;;;;;;;1.31;100.00;99174.66;6160817;23;20010;-91
2024/03/17 06:10:51;;;;;;;1.10;1.10;;;;;;;1.22;100.00;99183.72;6131570;23;20002;-92
2024/03/17 06:13:17;;;;;;;1.10;1.10;;;;;;;1.28;100.00;99183.22;6157422;23;20024;-92
2024/03/17 06:15:44;;;;;;;1.10;1.10;;;;;;;1.30;100.00;99180.75;6157040;23;20021;-91
2024/03/17 06:18:14;;;;;;;1.10;1.10;;;;;;;1.60;100.00;99182.00;6129018;23;20021;-91
2024/03/17 06:20:44;;;;;;;1.00;1.00;;;;;;;1.68;100.00;99181.75;6171369;23;20018;-91
2024/03/17 06:23:20;;;;;;;1.05;1.05;;;;;;;1.89;100.00;99173.53;6157685;23;20378;-91
2024/03/17 06:25:51;;;;;;;1.00;1.00;;;;;;;2.22;100.00;99173.25;6158823;23;20009;-90
2024/03/17 06:28:23;;;;;;;1.05;1.05;;;;;;;2.38;100.00;99169.94;6164403;23;20010;-90
2024/03/17 06:31:01;;;;;;;0.93;0.93;;;;;;;2.74;100.00;99165.31;6161648;23;20014;-90
2024/03/17 06:33:28;;;;;;;1.00;1.00;;;;;;;2.81;100.00;99168.44;6162171;23;20014;-91
2024/03/17 06:35:53;;;;;;;0.93;0.93;;;;;;;2.99;100.00;99155.56;6162106;23;20124;-90
2024/03/17 06:38:19;;;;;;;1.00;1.00;;;;;;;3.30;100.00;99152.28;6163791;23;20009;-91
2024/03/17 06:40:50;;;;;;;1.00;1.00;;;;;;;3.33;100.00;99149.84;6160886;23;20014;-91
2024/03/17 06:43:15;;;;;;;0.90;0.90;;;;;;;3.76;100.00;99152.56;6137702;23;20073;-92
2024/03/17 06:45:41;;;;;;;0.80;0.80;;;;;;;3.91;97.95;99142.94;6160836;23;20005;-91
2024/03/17 06:48:06;;;;;;;0.90;0.90;;;;;;;4.31;96.94;99138.38;6160647;23;20350;-91
2024/03/17 06:50:33;;;;;;;0.90;0.90;;;;;;;4.52;94.38;99140.47;6160911;23;20013;-91
2024/03/17 06:52:59;;;;;;;0.90;0.90;;;;;;;5.18;93.59;99131.06;6161808;23;20049;-91
2024/03/17 06:55:24;;;;;;;0.80;0.80;;;;;;;5.47;90.99;99132.69;6136833;23;20005;-92
2024/03/17 06:57:51;;;;;;;0.80;0.80;;;;;;;5.81;90.17;99127.50;6155076;23;20111;-92
2024/03/17 07:00:17;;;;;;;0.73;0.73;;;;;;;6.27;88.51;99120.28;6132221;23;20022;-92
2024/03/17 07:02:44;;;;;;;0.70;0.70;;;;;;;6.82;87.72;99125.75;6131478;23;20001;-92
2024/03/17 07:05:14;;;;;;;0.70;0.70;;;;;;;7.02;84.91;99128.50;6131242;23;20013;-90
2024/03/17 07:07:40;;;;;;;0.70;0.70;;;;;;;7.20;85.14;99118.78;6129646;23;20017;-91
2024/03/17 07:10:06;;;;;;;0.70;0.70;;;;;;;7.76;84.50;99124.94;6157014;23;20024;-88
2024/03/17 07:12:31;;;;;;;0.60;0.60;;;;;;;8.08;85.22;99123.78;6155727;23;20049;-90
2024/03/17 07:14:57;;;;;;;0.60;0.60;;;;;;;7.86;84.97;99128.13;6156679;23;20091;-90
2024/03/17 07:17:22;;;;;;;0.70;0.70;;;;;;;7.84;84.89;99131.53;6156463;23;20090;-89
2024/03/17 07:19:49;;;;;;;0.60;0.60;;;;;;;7.61;86.17;99127.81;6155021;23;20017;-90
2024/03/17 07:22:14;;;;;;;0.70;0.70;;;;;;;7.30;84.02;99134.31;6156601;23;20013;-90
2024/03/17 07:24:44;;;;;;;0.60;0.60;;;;;;;8.60;85.80;99124.38;6156614;23;20017;-89
2024/03/17 07:27:13;;;;;;;0.60;0.60;;;;;;;8.39;83.57;99123.44;6154180;23;20020;-90
2024/03/17 07:29:39;;;;;;;0.60;0.60;;;;;;;9.00;79.48;99123.38;6130336;23;20013;-90
2024/03/17 07:32:05;;;;;;;0.55;0.55;;;;;;;9.74;81.03;99120.16;6158799;23;20052;-91
2024/03/17 07:34:31;;;;;;;0.50;0.50;;;;;;;10.19;78.20;99109.41;6160877;23;20017;-90
2024/03/17 07:36:56;;;;;;;0.60;0.60;;;;;;;10.57;77.86;99119.69;6136116;23;20037;-91
2024/03/17 07:39:22;;;;;;;0.50;0.50;;;;;;;11.02;75.47;99120.38;6163281;23;20100;-90
2024/03/17 07:41:49;;;;;;;0.40;0.40;;;;;;;11.20;72.68;99114.69;6164952;23;20013;-91
2024/03/17 07:44:14;;;;;;;0.50;0.50;;;;;;;11.45;74.21;99111.06;6166774;23;20029;-90
2024/03/17 07:46:40;;;;;;;0.40;0.40;;;;;;;10.98;71.98;99114.00;6170255;23;20032;-90
2024/03/17 07:49:05;;;;;;;0.40;0.40;;;;;;;10.89;75.00;99116.38;6173020;23;20020;-90
2024/03/17 07:51:34;;;;;;;0.40;0.40;;;;;;;10.40;78.39;99109.31;6177202;23;20031;-91
2024/03/17 07:53:59;;;;;;;0.40;0.40;;;;;;;10.41;79.42;99112.91;6179090;23;20009;-91
2024/03/17 07:56:26;;;;;;;0.40;0.40;;;;;;;10.37;76.82;99118.97;6204925;23;20041;-91
2024/03/17 07:58:51;;;;;;;0.50;0.50;;;;;;;10.36;77.81;99109.16;6182004;23;20012;-91
2024/03/17 08:01:17;;;;;;;0.50;0.50;;;;;;;11.06;77.48;99114.25;6155455;23;20382;-92
2024/03/17 08:03:53;;;;;;;0.50;0.50;;;;;;;11.65;75.26;99104.59;6178544;23;20006;-91
2024/03/17 08:06:20;;;;;;;0.50;0.50;;;;;;;11.57;73.68;99116.78;6152649;23;20028;-92
2024/03/17 08:08:46;;;;;;;;;;;;;;;11.47;74.94;99115.59;6171830;23;20275;-91
2024/03/17 08:11:11;;;;;;;0.50;0.50;;;;;;;11.63;72.24;99100.03;6171749;23;19908;-92
2024/03/17 08:13:37;;;;;;;0.50;0.50;;;;;;;12.04;73.13;99102.22;6147836;23;20009;-90
2024/03/17 08:16:08;;;;;;;0.40;0.40;;;;;;;12.20;73.27;99095.53;6172192;23;20077;-92
2024/03/17 08:18:34;;;;;;;0.40;0.40;;;;;;;12.41;70.18;99095.25;6145329;23;20040;-90
2024/03/17 08:21:04;;;;;;;0.45;0.45;;;;;;;13.38;69.47;99089.72;6118001;23;20459;-90
2024/03/17 08:23:29;;;;;;;0.40;0.40;;;;;;;13.85;66.54;99075.63;6165183;23;20044;-91
2024/03/17 08:26:01;;;;;;;0.30;0.30;;;;;;;13.85;67.09;99078.31;6161883;23;20024;-90
2024/03/17 08:28:27;;;;;;;0.30;0.30;;;;;;;13.72;67.22;99075.31;6142192;23;20072;-93
2024/03/17 08:30:54;;;;;;;0.40;0.40;;;;;;;13.93;65.68;99069.50;6133942;23;20017;-92
2024/03/17 08:33:22;;;;;;;0.40;0.40;;;;;;;14.07;64.74;99068.03;6157905;23;20061;-91
2024/03/17 08:35:59;;;;;;;0.40;0.40;;;;;;;13.98;65.32;99057.09;6157096;23;20095;-90
2024/03/17 08:38:25;;;;;;;;;;;;;;;14.12;64.83;99061.88;6133341;23;20086;-92
2024/03/17 08:40:52;;;;;;;0.40;0.40;;;;;;;13.87;64.08;99067.59;6160150;23;19912;-93
2024/03/17 08:43:18;;;;;;;0.40;0.40;;;;;;;14.01;62.88;99071.47;6130429;23;20017;-92
2024/03/17 08:45:44;;;;;;;0.40;0.40;;;;;;;13.95;62.26;99068.69;6133721;23;20017;-91
2024/03/17 08:48:10;;;;;;;0.50;0.50;;;;;;;13.46;65.24;99072.97;6156026;23;20013;-91
2024/03/17 08:50:37;;;;;;;0.38;0.38;;;;;;;14.42;64.30;99079.47;6157021;23;20025;-93
2024/03/17 08:53:03;;;;;;;0.40;0.40;;;;;;;14.31;64.46;99079.25;6157109;23;20010;-92
2024/03/17 08:55:28;;;;;;;0.40;0.40;;;;;;;13.95;63.46;99068.69;6151907;23;20017;-91
2024/03/17 08:58:00;;;;;;;0.40;0.40;;;;;;;14.29;62.82;99072.06;6155465;23;20006;-91
2024/03/17 09:00:26;;;;;;;0.40;0.40;;;;;;;13.83;64.86;99080.03;6132219;23;20020;-92
2024/03/17 09:02:52;;;;;;;0.30;0.30;;;;;;;13.59;65.91;99077.72;6155245;23;20018;-90
2024/03/17 09:05:17;;;;;;;0.40;0.40;;;;;;;13.76;65.34;99071.84;6157149;23;20234;-91
2024/03/17 09:07:44;;;;;;;0.40;0.40;;;;;;;13.76;64.69;99077.22;6132966;23;20075;-91
2024/03/17 09:10:13;;;;;;;0.40;0.40;;;;;;;13.65;64.81;99082.31;6167174;23;20040;-90
2024/03/17 09:12:40;;;;;;;0.40;0.40;;;;;;;13.67;64.61;99071.63;6158820;23;20017;-91
2024/03/17 09:15:06;;;;;;;;;;;;;;;13.78;63.67;99062.94;6132479;23;20064;-91
2024/03/17 09:17:31;;;;;;;0.40;0.40;;;;;;;14.16;63.25;99067.31;6163646;23;19913;-91
2024/03/17 09:19:57;;;;;;;0.40;0.40;;;;;;;14.54;63.33;99066.31;6135542;23;20008;-89
2024/03/17 09:22:23;;;;;;;0.40;0.40;;;;;;;14.43;62.96;99059.81;6153989;23;20038;-91
2024/03/17 09:24:49;;;;;;;0.45;0.45;;;;;;;14.45;62.56;99058.03;6127288;23;20016;-90
2024/03/17 09:27:18;;;;;;;0.40;0.40;;;;;;;14.28;63.72;99057.72;6152728;23;20419;-90
2024/03/17 09:29:48;;;;;;;0.40;0.40;;;;;;;14.36;64.40;99052.50;6155489;23;20370;-89
2024/03/17 09:32:17;;;;;;;0.40;0.40;;;;;;;14.98;62.39;99042.00;6130482;23;20029;-89
2024/03/17 09:34:48;;;;;;;0.40;0.40;;;;;;;15.68;58.36;99052.06;6154720;23;20071;-89
2024/03/17 09:37:15;;;;;;;0.50;0.50;;;;;;;16.05;57.56;99038.22;6155432;23;20017;-92
2024/03/17 09:39:41;;;;;;;0.40;0.40;;;;;;;16.15;55.39;99047.31;6157904;23;20045;-88
2024/03/17 09:42:16;;;;;;;0.40;0.40;;;;;;;16.17;55.85;99041.03;6156627;23;20024;-88
2024/03/17 09:44:45;;;;;;;0.40;0.40;;;;;;;15.47;56.04;99042.75;6154097;23;20009;-89
2024/03/17 09:47:21;;;;;;;0.38;0.38;;;;;;;15.42;56.58;99033.72;6178072;23;20056;-89
2024/03/17 09:49:50;;;;;;;0.40;0.40;;;;;;;16.06;54.47;99029.25;6153151;23;20022;-89
2024/03/17 09:52:24;;;;;;;0.30;0.30;;;;;;;16.65;52.42;99026.28;6154247;23;20398;-88
2024/03/17 09:55:02;;;;;;;0.30;0.30;;;;;;;17.23;50.03;99031.31;6126755;23;20520;-87
2024/03/17 09:57:30;;;;;;;0.30;0.30;;;;;;;17.32;48.37;99027.78;6154287;23;20065;-88
2024/03/17 09:59:55;;;;;;;0.30;0.30;;;;;;;17.04;50.40;99041.03;6151775;23;20002;-88
2024/03/17 10:02:22;;;;;;;0.30;0.30;;;;;;;17.42;47.29;99037.75;6153260;23;20331;-89
2024/03/17 10:04:47;;;;;;;0.30;0.30;;;;;;;16.56;48.54;99033.38;6152931;23;20032;-89
2024/03/17 10:07:14;;;;;;;0.30;0.30;;;;;;;16.71;49.23;99033.53;6156263;23;20013;-87
2024/03/17 10:09:41;;;;;;;0.30;0.30;;;;;;;16.49;48.65;99035.13;6135588;23;20014;-87
2024/03/17 10:12:25;;;;;;;0.30;0.30;;;;;;;15.63;48.95;99041.22;6160586;23;20021;-89
2024/03/17 10:15:00;;;;;;;0.30;0.30;;;;;;;15.36;49.85;99047.09;6132426;23;20072;-90
2024/03/17 10:17:32;;;;;;;0.30;0.30;;;;;;;16.66;46.63;99041.56;6136587;23;20013;-88
2024/03/17 10:20:17;;;;;;;0.30;0.30;;;;;;;16.95;47.20;99046.34;6135727;23;20005;-88
2024/03/17 10:23:06;;;;;;;0.30;0.30;;;;;;;17.59;43.65;99041.47;6155287;23;20068;-88
2024/03/17 10:25:39;;;;;;;0.30;0.30;;;;;;;17.13;45.39;99029.44;6125086;23;20017;-87
2024/03/17 10:28:15;;;;;;;0.30;0.30;;;;;;;17.55;45.49;99031.53;6150323;23;20017;-87
2024/03/17 10:30:56;;;;;;;0.20;0.20;;;;;;;18.49;42.31;99022.03;6173011;23;20037;-88
2024/03/17 10:33:26;;;;;;;0.20;0.20;;;;;;;17.95;43.12;99023.66;6150300;23;20031;-89
2024/03/17 10:36:00;;;;;;;0.30;0.30;;;;;;;17.12;41.98;99027.63;6152014;23;20738;-87
2024/03/17 10:38:25;;;;;;;0.20;0.20;;;;;;;18.62;37.87;99018.47;6151467;23;20037;-86
2024/03/17 10:40:51;;;;;;;0.20;0.20;;;;;;;18.44;37.61;99021.13;6123838;23;20056;-87
2024/03/17 10:43:16;;;;;;;0.20;0.20;;;;;;;18.35;37.76;99016.63;6150112;23;20020;-87
2024/03/17 10:45:43;;;;;;;0.30;0.30;;;;;;;19.00;35.52;99017.63;6150296;23;20051;-87
2024/03/17 10:48:21;;;;;;;0.30;0.30;;;;;;;18.75;35.56;99014.03;6135809;23;20010;-89
2024/03/17 10:50:49;;;;;;;0.28;0.28;;;;;;;17.48;40.00;99020.69;6168678;23;20017;-89
2024/03/17 10:53:25;;;;;;;0.20;0.20;;;;;;;18.54;38.98;99012.16;6164899;23;20033;-88
2024/03/17 10:56:08;;;;;;;0.20;0.20;;;;;;;17.58;40.35;99023.47;6167671;23;20016;-88
2024/03/17 10:58:46;;;;;;;0.20;0.20;;;;;;;16.40;42.74;99025.16;6163072;23;20367;-89
2024/03/17 11:01:15;;;;;;;0.25;0.25;;;;;;;17.53;42.58;99014.41;6164347;23;20017;-87
2024/03/17 11:03:51;;;;;;;0.20;0.20;;;;;;;17.39;42.76;99021.53;6162676;23;20109;-88
2024/03/17 11:06:24;;;;;;;0.20;0.20;;;;;;;18.01;41.29;99022.78;6164899;23;20079;-87
2024/03/17 11:08:56;;;;;;;0.30;0.30;;;;;;;18.45;39.12;99021.16;6136082;23;20017;-89
2024/03/17 11:11:39;;;;;;;0.30;0.30;;;;;;;18.55;39.17;99024.78;6162838;23;20193;-90
2024/03/17 11:14:22;;;;;;;0.30;0.30;;;;;;;17.70;39.74;99017.22;6140246;23;20021;-87
2024/03/17 11:16:48;;;;;;;0.28;0.28;;;;;;;18.41;38.81;99018.44;6159494;23;20014;-87
2024/03/17 11:19:18;;;;;;;0.30;0.30;;;;;;;20.10;35.34;99022.84;6160722;23;20002;-88
2024/03/17 11:21:44;;;;;;;0.20;0.20;;;;;;;19.94;36.59;99016.59;6163348;23;20032;-89
2024/03/17 11:24:27;;;;;;;0.30;0.30;;;;;;;18.43;38.87;99024.72;6165003;23;20010;-88
2024/03/17 11:26:55;;;;;;;0.20;0.20;;;;;;;19.00;40.07;99014.91;6138878;23;20016;-90
2024/03/17 11:29:32;;;;;;;0.20;0.20;;;;;;;19.30;38.12;99008.59;6163226;23;20033;-89
2024/03/17 11:31:58;;;;;;;0.30;0.30;;;;;;;18.97;38.60;99009.50;6168045;23;19990;-89
2024/03/17 11:34:39;;;;;;;0.20;0.20;;;;;;;19.16;39.05;99005.91;6139913;23;20065;-90
2024/03/17 11:37:08;;;;;;;0.30;0.30;;;;;;;18.44;40.86;99000.44;6165831;23;20093;-86